Flight Track Log - Related Links

Times and Time Zones

All times are in EDT time to prevent confusion due to time zone crossing. See the SWA167 flight status page for this flight to view local times or setup timezone preferences in your user account.

Time Position Orientation Groundspeed Altitude Reporting Facility
EDT Latitude Longitude Course Direction KTS MPH feet Rate Location/Type
Sun 08:10:40 PM 38.7131 -90.5075 219° Southwest 291 335 6,700  Level Kansas City Center
Sun 08:11:42 PM 38.6336 -90.5422 199° South 303 349 10,100 3,073 Climbing Kansas City Center
Sun 08:12:43 PM 38.5403 -90.5406 179° South 346 398 13,000 3,268 Climbing Kansas City Center
Sun 08:13:45 PM 38.4353 -90.5236 173° South 358 412 16,800 3,484 Climbing Kansas City Center
Sun 08:14:00 PM 38.1436 -90.7359 205° Southwest  Level Estimated
Sun 08:14:47 PM 38.3508 -90.5853 210° Southwest 378 435 20,200  Level Kansas City Center
Sun 08:15:48 PM 38.2458 -90.6728 213° Southwest 382 440 23,500 2,439 Climbing Kansas City Center
Sun 08:16:50 PM 38.1364 -90.7203 199° South 411 473 25,200 1,597 Climbing Kansas City Center
Sun 08:17:52 PM 38.0264 -90.7897 206° Southwest 436 502 26,800 1,935 Climbing Kansas City Center
Sun 08:18:54 PM 37.9128 -90.8639 207° Southwest 454 522 29,200 2,098 Climbing Kansas City Center
Sun 08:19:55 PM 37.8056 -90.9394 209° Southwest 446 513 31,100 1,366 Climbing Kansas City Center
Sun 08:20:57 PM 37.6850 -90.9878 198° South 454 522 32,000 1,065 Climbing Kansas City Center
Sun 08:21:59 PM 37.5514 -91.0436 198° South 454 522 33,300 1,366 Climbing Kansas City Center
Sun 08:23:00 PM 37.4333 -91.0939 199° South 448 516 34,800 1,512 Climbing Kansas City Center
Sun 08:24:02 PM 37.3103 -91.1439 198° South 455 524 36,400 1,548 Climbing Kansas City Center
Sun 08:25:04 PM 37.1889 -91.1936 198° South 456 525 38,000 1,171 Climbing Kansas City Center
Sun 08:26:05 PM 37.0664 -91.2422 198° South 458 527 38,800 976 Climbing Kansas City Center
Sun 08:27:07 PM 36.9178 -91.3033 198° South 462 532 40,000 585 Climbing Kansas City Center
Sun 08:28:08 PM 36.7931 -91.3528 198° South 465 535 40,000  Level Kansas City Center
Sun 08:29:10 PM 36.6708 -91.4031 198° South 463 533 40,000  Level Kansas City Center
Sun 08:30:12 PM 36.5433 -91.4536 198° South 465 535 40,000  Level Kansas City Center
Sun 08:31:13 PM 36.4314 -91.4997 198° South 465 535 40,000  Level Kansas City Center
Sun 08:32:25 PM 36.2633 -91.5667 198° South 470 541 40,000  Level Memphis Center
Sun 08:33:25 PM 36.1378 -91.6164 198° South 470 541 40,000  Level Memphis Center
Sun 08:34:25 PM 36.0183 -91.6658 199° South 470 541 40,000  Level Memphis Center
Sun 08:35:25 PM 35.9075 -91.7050 196° South 464 534 40,000  Level Memphis Center
Sun 08:36:25 PM 35.7839 -91.7567 199° South 464 534 40,000  Level Memphis Center
Sun 08:37:25 PM 35.6581 -91.8033 197° South 469 540 40,000  Level Memphis Center
Sun 08:38:25 PM 35.5344 -91.8494 197° South 469 540 40,000  Level Memphis Center
Sun 08:39:25 PM 35.4131 -91.8983 198° South 469 540 40,000  Level Memphis Center
Sun 08:40:25 PM 35.2894 -91.9469 198° South 469 540 40,000  Level Memphis Center
Sun 08:41:25 PM 35.1553 -91.9953 196° South 469 540 40,000  Level Memphis Center
Sun 08:42:25 PM 35.0314 -92.0461 199° South 464 534 40,000  Level Memphis Center
Sun 08:43:25 PM 34.9097 -92.0917 197° South 464 534 40,000  Level Memphis Center
Sun 08:44:25 PM 34.7881 -92.1372 197° South 464 534 40,000  Level Memphis Center
Sun 08:45:25 PM 34.6644 -92.1828 197° South 464 534 40,000  Level Memphis Center
Sun 08:46:25 PM 34.5369 -92.2053 188° South 459 528 40,000  Level Memphis Center
Sun 08:47:25 PM 34.4092 -92.2300 189° South 464 534 40,000  Level Memphis Center
Sun 08:48:25 PM 34.2772 -92.2575 190° South 470 541 40,000  Level Memphis Center
Sun 08:49:25 PM 34.1456 -92.2822 189° South 475 547 40,000  Level Memphis Center
Sun 08:50:58 PM 33.9700 -92.3272 192° South 468 539 40,000  Level Fort Worth Center
Sun 08:51:58 PM 33.8625 -92.3986 209° Southwest 445 512 40,000  Level Fort Worth Center
Sun 08:52:58 PM 33.7547 -92.4722 210° Southwest 450 518 40,000  Level Fort Worth Center
Sun 08:53:58 PM 33.6469 -92.5406 208° Southwest 445 512 40,000  Level Fort Worth Center
Sun 08:54:58 PM 33.5408 -92.6089 208° Southwest 445 512 40,000  Level Fort Worth Center
Sun 08:55:58 PM 33.4308 -92.6794 208° Southwest 445 512 40,000  Level Fort Worth Center
Sun 08:56:58 PM 33.3250 -92.7447 207° Southwest 445 512 40,000  Level Fort Worth Center
Sun 08:57:58 PM 33.2211 -92.8147 209° Southwest 440 506 40,000  Level Fort Worth Center
Sun 08:58:58 PM 33.1150 -92.8800 207° Southwest 440 506 40,000  Level Fort Worth Center
Sun 08:59:58 PM 33.0067 -92.9497 208° Southwest 440 506 40,000  Level Fort Worth Center
Sun 09:00:58 PM 32.9047 -93.0142 208° Southwest 435 501 40,000  Level Fort Worth Center
Sun 09:01:58 PM 32.8006 -93.0811 208° Southwest 430 495 40,000  Level Fort Worth Center
Sun 09:02:58 PM 32.6964 -93.1478 208° Southwest 430 495 40,000  Level Fort Worth Center
Sun 09:03:58 PM 32.5900 -93.2144 208° Southwest 430 495 40,000  Level Fort Worth Center
Sun 09:04:58 PM 32.4839 -93.2811 208° Southwest 430 495 40,000  Level Fort Worth Center
Sun 09:05:58 PM 32.3794 -93.3472 208° Southwest 430 495 40,000  Level Fort Worth Center
Sun 09:06:58 PM 32.2650 -93.4211 209° Southwest 430 495 40,000  Level Fort Worth Center
Sun 09:07:58 PM 32.1789 -93.4717 206° Southwest 430 495 40,000  Level Fort Worth Center
Sun 09:08:58 PM 32.0667 -93.5525 211° Southwest 430 495 40,000  Level Fort Worth Center
Sun 09:10:12 PM 31.9378 -93.6303 207° Southwest 431 496 40,000  Level Houston Center
Sun 09:11:14 PM 31.8331 -93.6958 208° Southwest 430 495 40,000  Level Houston Center
Sun 09:12:15 PM 31.7242 -93.7625 208° Southwest 434 499 40,000  Level Houston Center
Sun 09:13:16 PM 31.6172 -93.8283 208° Southwest 433 498 40,000  Level Houston Center
Sun 09:14:17 PM 31.4889 -93.9081 208° Southwest 434 499 40,000  Level Houston Center
Sun 09:15:19 PM 31.3817 -93.9736 208° Southwest 433 498 40,000 -146 Level Houston Center
Sun 09:16:20 PM 31.2736 -94.0406 208° Southwest 436 502 39,700 -1,377 Descending Houston Center
Sun 09:17:21 PM 31.1678 -94.1050 208° Southwest 428 493 37,200 -2,705 Descending Houston Center
Sun 09:18:22 PM 31.0608 -94.1714 208° Southwest 430 495 34,200 -3,393 Descending Houston Center
Sun 09:19:23 PM 30.9486 -94.2397 208° Southwest 448 516 30,300 -3,246 Descending Houston Center
Sun 09:20:24 PM 30.8331 -94.3094 207° Southwest 461 531 27,600 -2,537 Descending Houston Center
Sun 09:21:26 PM 30.7231 -94.3767 208° Southwest 447 514 25,100 -2,488 Descending Houston Center
Sun 09:22:27 PM 30.6142 -94.4439 208° Southwest 428 493 22,500 -2,311 Descending Houston Center
Sun 09:23:28 PM 30.5164 -94.5033 208° Southwest 412 474 20,400 -2,262 Descending Houston Center
Sun 09:24:37 PM 30.4292 -94.6203 229° Southwest 372 428 17,600 -2,439 Descending Houston Center
Sun 09:25:31 PM 30.3758 -94.7033 233° Southwest 371 427 15,400 -2,348 Descending Houston Center
Sun 09:26:32 PM 30.3147 -94.7972 233° Southwest 368 423 13,100 -1,525 Descending Houston Center
Sun 09:27:33 PM 30.2572 -94.8872 234° Southwest 356 410 12,300 -885 Descending Houston Center
Sun 09:28:34 PM 30.2014 -94.9747 234° Southwest 345 397 11,300 -1,023 Descending Houston Center
Sun 09:29:42 PM 30.1278 -95.0722 229° Southwest 321 369 10,100 -634 Descending Houston Center
Sun 09:30:37 PM 30.0664 -95.1011 202° Southwest 312 359 10,000 -49 Descending Houston Center
Sun 09:31:44 PM 29.9683 -95.1425 200° South 305 351 10,000  Level Houston Center
Sun 09:32:39 PM 29.9108 -95.1678 201° Southwest 292 336 10,000 -295 Level Houston Center
Sun 09:33:46 PM 29.8192 -95.1872 190° South 275 316 9,400 -590 Descending Houston Center
Sun 09:34:41 PM 29.7661 -95.1783 172° South 274 315 8,800 -931 Descending Houston Center
Sun 09:35:42 PM 29.6806 -95.1647 172° South 260 299 7,600 -1,131 Descending Houston Center
Sun 09:36:43 PM 29.6200 -95.1881 199° South 243 280 6,500 -1,220 Descending Houston Center
Sun 09:37:45 PM 29.5686 -95.2347 218° Southwest 240 276 5,100 -1,220 Descending Houston Center
Sun 09:38:46 PM 29.5206 -95.2831 221° Southwest 232 267 4,000 -934 Descending Houston Center
Sun 09:39:47 PM 29.5297 -95.3306 283° West 171 197 3,200 -984 Descending Houston Center
Sun 09:40:48 PM 29.5600 -95.3606 319° Northwest 149 171 2,000 -984 Descending Houston Center
Sun 09:41:49 PM 29.5925 -95.3378 31° Northeast 144 166 1,200 -689 Descending Houston Center
Sun 09:42:50 PM 29.6175 -95.3097 44° Northeast 129 148 600 -541 Descending Houston Center
Sun 09:43:51 PM 29.6453 -95.2794 43° Northeast 126 145 100 -492 Descending Houston Center

Login

Don't have an account? Register now (free) for customized features, flight alerts, and more!